createdAt,value
2023-03-24T00:02:08.977Z,14.60
2023-03-24T00:04:35.983Z,14.60
2023-03-24T00:07:03.248Z,14.60
2023-03-24T00:09:30.439Z,14.60
2023-03-24T00:11:57.324Z,14.60
2023-03-24T00:14:24.110Z,14.50
2023-03-24T00:16:51.056Z,14.40
2023-03-24T00:19:18.128Z,14.30
2023-03-24T00:21:44.722Z,14.30
2023-03-24T00:24:12.621Z,14.30
2023-03-24T00:26:40.048Z,14.30
2023-03-24T00:29:07.398Z,14.30
2023-03-24T00:31:33.982Z,14.40
2023-03-24T00:34:02.719Z,14.40
2023-03-24T00:36:29.355Z,14.50
2023-03-24T00:38:56.396Z,14.50
2023-03-24T00:41:24.729Z,14.50
2023-03-24T00:43:53.756Z,14.40
2023-03-24T00:46:29.620Z,14.40
2023-03-24T00:49:03.530Z,14.40
2023-03-24T00:51:31.567Z,14.40
2023-03-24T00:53:59.231Z,14.40
2023-03-24T00:56:27.065Z,14.40
2023-03-24T00:58:57.685Z,14.30
2023-03-24T01:01:25.472Z,14.40
2023-03-24T01:03:51.966Z,14.40
2023-03-24T01:06:19.076Z,14.30
2023-03-24T01:08:45.639Z,14.30
2023-03-24T01:11:12.793Z,14.30
2023-03-24T01:13:40.943Z,14.30
2023-03-24T01:16:07.879Z,14.20
2023-03-24T01:18:34.914Z,14.30
2023-03-24T01:21:01.451Z,14.30
2023-03-24T01:23:30.563Z,14.20
2023-03-24T01:25:57.034Z,14.20
2023-03-24T01:28:25.001Z,14.20
2023-03-24T01:30:52.197Z,14.30
2023-03-24T01:33:18.748Z,14.20
2023-03-24T01:35:45.598Z,14.30
2023-03-24T01:38:13.184Z,14.30
2023-03-24T01:40:41.881Z,14.40
2023-03-24T01:43:15.968Z,14.40
2023-03-24T01:45:45.379Z,14.40
2023-03-24T01:48:14.231Z,14.40
2023-03-24T01:50:42.173Z,14.50
2023-03-24T01:53:08.845Z,14.40
2023-03-24T01:55:35.779Z,14.40
2023-03-24T01:58:02.980Z,14.20
2023-03-24T02:00:29.984Z,14.20
2023-03-24T02:02:59.067Z,14.20
2023-03-24T02:05:27.785Z,14.20
2023-03-24T02:08:13.229Z,14.20
2023-03-24T02:10:39.962Z,14.30
2023-03-24T02:13:13.226Z,14.40
2023-03-24T02:16:02.722Z,14.40
2023-03-24T02:18:36.943Z,14.40
2023-03-24T02:21:24.466Z,14.30
2023-03-24T02:24:09.839Z,14.20
2023-03-24T02:26:55.184Z,14.10
2023-03-24T02:29:40.297Z,14.10
2023-03-24T02:32:06.746Z,14.10
2023-03-24T02:34:42.701Z,14.10
2023-03-24T02:37:27.452Z,14.10
2023-03-24T02:39:57.086Z,14.10
2023-03-24T02:42:26.586Z,14.10
2023-03-24T02:45:08.432Z,14.10
2023-03-24T02:48:00.418Z,14.10
2023-03-24T02:50:30.338Z,14.10
2023-03-24T02:53:18.774Z,14.00
2023-03-24T02:55:52.081Z,14.00
2023-03-24T02:58:21.840Z,14.00
2023-03-24T03:00:52.253Z,13.90
2023-03-24T03:03:27.068Z,13.90
2023-03-24T03:05:58.528Z,13.80
2023-03-24T03:08:27.307Z,13.80
2023-03-24T03:10:54.831Z,13.80
2023-03-24T03:13:21.398Z,13.90
2023-03-24T03:15:49.842Z,13.80
2023-03-24T03:18:31.132Z,13.90
2023-03-24T03:21:04.355Z,13.90
2023-03-24T03:23:50.170Z,13.90
2023-03-24T03:26:17.853Z,13.90
2023-03-24T03:28:49.693Z,13.90
2023-03-24T03:31:18.153Z,13.90
2023-03-24T03:33:56.824Z,13.80
2023-03-24T03:36:28.769Z,13.80
2023-03-24T03:39:03.682Z,13.80
2023-03-24T03:41:30.385Z,13.80
2023-03-24T03:43:56.992Z,13.80
2023-03-24T03:46:23.679Z,13.80
2023-03-24T03:48:50.982Z,13.80
2023-03-24T03:51:18.246Z,13.80
2023-03-24T03:53:49.921Z,13.80
2023-03-24T03:56:18.645Z,13.80
2023-03-24T03:58:47.074Z,13.80
2023-03-24T04:01:16.072Z,13.90
2023-03-24T04:03:51.412Z,13.90
2023-03-24T04:06:30.755Z,13.90
2023-03-24T04:09:04.216Z,14.00
2023-03-24T04:11:45.220Z,13.90
2023-03-24T04:14:11.658Z,13.90
2023-03-24T04:16:49.101Z,14.00
2023-03-24T04:19:21.450Z,13.90
2023-03-24T04:21:58.300Z,13.90
2023-03-24T04:24:32.574Z,13.90
2023-03-24T04:27:09.240Z,13.80
2023-03-24T04:29:42.380Z,13.80
2023-03-24T04:32:35.450Z,13.80
2023-03-24T04:35:04.452Z,13.90
2023-03-24T04:37:37.749Z,13.80
2023-03-24T04:40:10.783Z,13.80
2023-03-24T04:42:52.381Z,13.90
2023-03-24T04:45:19.729Z,13.80
2023-03-24T04:47:48.733Z,13.80
2023-03-24T04:50:30.218Z,13.80
2023-03-24T04:52:57.070Z,13.70
2023-03-24T04:55:37.633Z,13.70
2023-03-24T04:58:04.259Z,13.70
2023-03-24T05:00:31.845Z,13.70
2023-03-24T05:02:58.327Z,13.80
2023-03-24T05:05:25.023Z,13.80
2023-03-24T05:07:51.522Z,13.80
2023-03-24T05:10:21.767Z,13.80
2023-03-24T05:12:48.943Z,13.90
2023-03-24T05:15:15.879Z,13.80
2023-03-24T05:17:42.399Z,13.90
2023-03-24T05:20:12.038Z,13.90
2023-03-24T05:22:38.562Z,14.00
2023-03-24T05:25:05.765Z,13.90
2023-03-24T05:27:32.446Z,14.00
2023-03-24T05:29:59.054Z,14.00
2023-03-24T05:32:25.612Z,14.00
2023-03-24T05:34:52.153Z,14.00
2023-03-24T05:37:18.803Z,14.00
2023-03-24T05:39:45.351Z,14.10
2023-03-24T05:42:12.140Z,14.10
2023-03-24T05:44:38.680Z,14.10
2023-03-24T05:47:05.401Z,14.10
2023-03-24T05:49:31.894Z,14.10
2023-03-24T05:51:58.410Z,14.10
2023-03-24T05:54:25.099Z,14.10
2023-03-24T05:56:51.681Z,14.10
2023-03-24T05:59:18.198Z,14.30
2023-03-24T06:01:44.663Z,14.40
2023-03-24T06:04:11.338Z,14.50
2023-03-24T06:06:40.843Z,14.50
2023-03-24T06:09:07.304Z,14.60
2023-03-24T06:11:33.826Z,14.60
2023-03-24T06:14:00.454Z,14.60
2023-03-24T06:16:27.191Z,14.60
2023-03-24T06:18:53.841Z,14.60
2023-03-24T06:21:20.537Z,14.60
2023-03-24T06:23:47.531Z,14.60
2023-03-24T06:26:14.852Z,14.60
2023-03-24T06:28:41.999Z,14.50
2023-03-24T06:31:15.207Z,14.40
2023-03-24T06:33:42.489Z,14.40
2023-03-24T06:36:09.849Z,14.30
2023-03-24T06:38:36.431Z,14.30
2023-03-24T06:41:03.806Z,14.20
2023-03-24T06:43:30.694Z,14.10
2023-03-24T06:45:57.513Z,14.10
2023-03-24T06:48:24.299Z,14.10
2023-03-24T06:50:52.487Z,14.00
2023-03-24T06:53:19.321Z,14.00
2023-03-24T06:55:45.915Z,14.00
2023-03-24T06:58:12.630Z,13.90
2023-03-24T07:00:39.150Z,13.90
2023-03-24T07:03:06.153Z,13.90
2023-03-24T07:05:34.052Z,14.00
2023-03-24T07:10:31.433Z,14.00
2023-03-24T07:12:59.324Z,13.90
2023-03-24T07:15:25.992Z,13.90
2023-03-24T07:17:52.476Z,14.00
2023-03-24T07:20:20.166Z,14.00
2023-03-24T07:22:46.954Z,14.00
2023-03-24T07:25:14.245Z,14.10
2023-03-24T07:27:42.747Z,14.00
2023-03-24T07:30:09.564Z,14.00
2023-03-24T07:32:39.396Z,13.90
2023-03-24T07:35:06.942Z,13.90
2023-03-24T07:37:33.460Z,13.90
2023-03-24T07:40:00.329Z,13.90
2023-03-24T07:42:26.953Z,13.90
2023-03-24T07:44:53.505Z,13.80
2023-03-24T07:47:19.958Z,13.80
2023-03-24T07:49:46.710Z,13.80
2023-03-24T07:52:13.179Z,13.80
2023-03-24T07:54:39.618Z,13.80
2023-03-24T07:57:06.953Z,13.80
2023-03-24T07:59:35.226Z,13.80
2023-03-24T08:02:02.198Z,13.80
2023-03-24T08:04:28.871Z,13.80
2023-03-24T08:06:55.393Z,13.80
2023-03-24T08:09:24.002Z,13.80
2023-03-24T08:11:50.993Z,13.80
2023-03-24T08:14:17.444Z,13.80
2023-03-24T08:16:45.869Z,13.80
2023-03-24T08:19:12.560Z,13.80
2023-03-24T08:21:39.058Z,13.90
2023-03-24T08:24:06.707Z,13.90
2023-03-24T08:26:35.172Z,13.90
2023-03-24T08:29:01.949Z,13.90
2023-03-24T08:31:34.612Z,13.90
2023-03-24T08:34:01.452Z,14.00
2023-03-24T08:36:28.035Z,14.10
2023-03-24T08:38:55.536Z,14.10
2023-03-24T08:41:34.520Z,14.10
2023-03-24T08:44:06.289Z,14.10
2023-03-24T08:46:33.685Z,14.20
2023-03-24T08:49:00.365Z,14.30
2023-03-24T08:51:27.089Z,14.30
2023-03-24T08:53:53.930Z,14.40
2023-03-24T08:56:20.638Z,14.40
2023-03-24T08:58:48.574Z,14.40
2023-03-24T09:01:15.138Z,14.50
2023-03-24T09:03:41.633Z,14.50
2023-03-24T09:06:08.300Z,14.60
2023-03-24T09:08:34.778Z,14.70
2023-03-24T09:11:01.372Z,15.20
2023-03-24T09:13:27.989Z,15.60
2023-03-24T09:15:57.753Z,16.10
2023-03-24T09:18:24.630Z,16.90
2023-03-24T09:20:51.676Z,16.90
2023-03-24T09:23:18.801Z,16.50
2023-03-24T09:25:45.438Z,16.00
2023-03-24T09:28:13.695Z,15.70
2023-03-24T09:30:40.268Z,15.40
2023-03-24T09:33:06.816Z,15.10
2023-03-24T09:35:33.398Z,14.90
2023-03-24T09:37:59.902Z,14.70
2023-03-24T09:40:28.336Z,14.60
2023-03-24T09:43:06.995Z,14.50
2023-03-24T09:45:36.460Z,14.40
2023-03-24T09:48:05.667Z,14.30
2023-03-24T09:50:39.027Z,14.20
2023-03-24T09:53:34.745Z,14.10
2023-03-24T09:56:04.379Z,14.10
2023-03-24T09:58:31.857Z,14.10
2023-03-24T10:00:58.344Z,14.00
2023-03-24T10:03:25.095Z,14.00
2023-03-24T10:06:05.114Z,14.00
2023-03-24T10:08:32.095Z,14.00
2023-03-24T10:10:58.718Z,14.10
2023-03-24T10:13:30.248Z,14.10
2023-03-24T10:16:05.348Z,14.10
2023-03-24T10:18:42.823Z,14.30
2023-03-24T10:21:15.886Z,14.40
2023-03-24T10:23:53.857Z,14.50
2023-03-24T10:26:29.225Z,14.60
2023-03-24T10:29:22.561Z,14.80
2023-03-24T10:31:54.211Z,15.00
2023-03-24T10:34:22.104Z,15.10
2023-03-24T10:36:49.357Z,15.20
2023-03-24T10:39:22.471Z,15.30
2023-03-24T10:41:53.575Z,15.30
2023-03-24T10:44:20.705Z,15.30
2023-03-24T10:46:49.387Z,15.20
2023-03-24T10:49:18.246Z,15.10
2023-03-24T10:51:52.236Z,15.10
2023-03-24T10:54:18.722Z,15.00
2023-03-24T10:56:50.266Z,15.00
2023-03-24T10:59:19.783Z,15.00
2023-03-24T11:01:46.360Z,15.00
2023-03-24T11:04:14.866Z,14.90
2023-03-24T11:06:54.384Z,14.80
2023-03-24T11:09:22.032Z,14.70
2023-03-24T11:11:49.082Z,14.60
2023-03-24T11:14:22.501Z,14.60
2023-03-24T11:16:49.064Z,14.50
2023-03-24T11:19:21.827Z,14.40
2023-03-24T11:21:50.780Z,14.40
2023-03-24T11:24:18.537Z,14.40
2023-03-24T11:27:05.967Z,14.40
2023-03-24T11:29:33.975Z,14.40
2023-03-24T11:32:01.731Z,14.50
2023-03-24T11:34:38.734Z,14.60
2023-03-24T11:37:09.202Z,14.70
2023-03-24T11:39:35.784Z,14.80
2023-03-24T11:42:12.028Z,14.90
2023-03-24T11:44:38.746Z,14.90
2023-03-24T11:47:11.371Z,14.90
2023-03-24T11:49:41.934Z,14.80
2023-03-24T11:52:14.638Z,14.80
2023-03-24T11:54:41.378Z,14.80
2023-03-24T11:57:12.147Z,14.70
2023-03-24T11:59:58.113Z,14.60
2023-03-24T12:02:30.919Z,14.60
2023-03-24T12:05:12.708Z,14.50
2023-03-24T12:08:11.791Z,14.50
2023-03-24T12:10:53.449Z,14.40
2023-03-24T12:13:32.865Z,14.20
2023-03-24T12:16:06.127Z,14.10
2023-03-24T12:18:39.459Z,13.90
2023-03-24T12:21:14.543Z,13.90
2023-03-24T12:23:57.967Z,13.80
2023-03-24T12:26:31.055Z,13.70
2023-03-24T12:29:16.459Z,13.70
2023-03-24T12:31:45.769Z,13.60
2023-03-24T12:34:31.161Z,13.60
2023-03-24T12:37:23.623Z,13.50
2023-03-24T12:39:58.554Z,13.50
2023-03-24T12:42:26.129Z,13.40
2023-03-24T12:44:58.675Z,13.40
2023-03-24T12:47:28.212Z,13.20
2023-03-24T12:50:01.737Z,13.10
2023-03-24T12:52:40.146Z,13.00
2023-03-24T12:55:19.006Z,12.90
2023-03-24T12:57:48.344Z,12.90
2023-03-24T13:00:20.028Z,12.90
2023-03-24T13:02:54.680Z,12.90
2023-03-24T13:05:24.097Z,12.90
2023-03-24T13:07:54.490Z,12.90
2023-03-24T13:10:27.060Z,12.90
2023-03-24T13:13:12.099Z,12.90
2023-03-24T13:15:45.297Z,13.00
2023-03-24T13:18:11.942Z,13.00
2023-03-24T13:20:46.112Z,13.00
2023-03-24T13:23:21.721Z,13.00
2023-03-24T13:25:52.446Z,12.90
2023-03-24T13:28:24.940Z,13.00
2023-03-24T13:30:51.584Z,12.90
2023-03-24T13:33:21.456Z,12.90
2023-03-24T13:35:54.129Z,12.80
2023-03-24T13:38:26.590Z,12.80
2023-03-24T13:40:53.601Z,12.80
2023-03-24T13:43:24.669Z,12.80
2023-03-24T13:45:58.148Z,12.80
2023-03-24T13:48:27.563Z,12.80
2023-03-24T13:51:01.700Z,12.90
2023-03-24T13:53:33.423Z,12.90
2023-03-24T13:56:01.194Z,12.90
2023-03-24T13:58:43.723Z,12.90
2023-03-24T14:01:10.738Z,12.90
2023-03-24T14:03:44.895Z,12.80
2023-03-24T14:06:18.018Z,12.80
2023-03-24T14:08:53.525Z,12.80
2023-03-24T14:11:33.742Z,12.70
2023-03-24T14:14:06.128Z,12.70
2023-03-24T14:16:41.029Z,12.70
2023-03-24T14:19:17.459Z,12.70
2023-03-24T14:21:44.507Z,12.70
2023-03-24T14:24:21.602Z,12.60
2023-03-24T14:26:48.607Z,12.60
2023-03-24T14:29:37.344Z,12.60
2023-03-24T14:32:17.056Z,12.60
2023-03-24T14:34:54.958Z,12.60
2023-03-24T14:37:22.878Z,12.60
2023-03-24T14:39:49.758Z,12.70
2023-03-24T14:42:28.554Z,12.70
2023-03-24T14:45:15.328Z,12.70
2023-03-24T14:47:42.169Z,12.70
2023-03-24T14:50:27.443Z,12.70
2023-03-24T14:52:55.403Z,12.80
2023-03-24T14:55:22.293Z,12.80
2023-03-24T14:57:53.203Z,12.70
2023-03-24T15:00:22.566Z,12.70
2023-03-24T15:03:10.623Z,12.70
2023-03-24T15:05:38.688Z,12.60
2023-03-24T15:08:18.878Z,12.60
2023-03-24T15:10:58.543Z,12.60
2023-03-24T15:13:41.188Z,12.60
2023-03-24T15:16:17.520Z,12.60
2023-03-24T15:19:01.430Z,12.60
2023-03-24T15:21:35.130Z,12.70
2023-03-24T15:24:02.117Z,12.70
2023-03-24T15:26:30.090Z,12.70
2023-03-24T15:28:57.881Z,12.70
2023-03-24T15:31:25.231Z,12.70
2023-03-24T15:33:52.989Z,12.70
2023-03-24T15:36:22.966Z,12.60
2023-03-24T15:38:52.050Z,12.50
2023-03-24T15:41:20.214Z,12.50
2023-03-24T15:43:49.230Z,12.50
2023-03-24T15:46:26.966Z,12.50
2023-03-24T15:48:54.850Z,12.40
2023-03-24T15:51:41.310Z,12.50
2023-03-24T15:54:36.934Z,12.50
2023-03-24T15:57:03.381Z,12.40
2023-03-24T15:59:33.725Z,12.50
2023-03-24T16:02:00.225Z,12.50
2023-03-24T16:04:28.757Z,12.50
2023-03-24T16:06:57.516Z,12.50
2023-03-24T16:09:27.335Z,12.50
2023-03-24T16:11:54.107Z,12.50
2023-03-24T16:14:27.725Z,12.50
2023-03-24T16:16:55.764Z,12.40
2023-03-24T16:19:22.411Z,12.40
2023-03-24T16:21:48.922Z,12.40
2023-03-24T16:24:15.560Z,12.40
2023-03-24T16:26:42.049Z,12.30
2023-03-24T16:29:19.072Z,12.30
2023-03-24T16:31:49.169Z,12.20
2023-03-24T16:34:16.399Z,12.20
2023-03-24T16:36:42.865Z,12.10
2023-03-24T16:39:12.795Z,12.10
2023-03-24T16:41:39.309Z,12.10
2023-03-24T16:44:05.826Z,12.10
2023-03-24T16:46:33.896Z,12.10
2023-03-24T16:49:01.623Z,12.00
2023-03-24T16:51:29.597Z,12.00
2023-03-24T16:53:56.139Z,12.00
2023-03-24T16:56:23.047Z,12.00
2023-03-24T16:58:50.741Z,11.90
2023-03-24T17:01:27.359Z,11.90
2023-03-24T17:03:54.518Z,11.90
2023-03-24T17:06:21.746Z,11.90
2023-03-24T17:08:48.351Z,11.90
2023-03-24T17:11:20.194Z,11.80
2023-03-24T17:13:46.650Z,11.80
2023-03-24T17:16:13.487Z,11.80
2023-03-24T17:18:40.026Z,11.70
2023-03-24T17:21:12.657Z,11.70
2023-03-24T17:23:39.485Z,11.70
2023-03-24T17:26:06.190Z,11.70
2023-03-24T17:28:32.634Z,11.70
2023-03-24T17:30:59.204Z,11.70
2023-03-24T17:33:25.715Z,11.80
2023-03-24T17:35:53.520Z,11.70
2023-03-24T17:38:20.507Z,11.70
2023-03-24T17:40:47.133Z,11.70
2023-03-24T17:43:13.824Z,11.70
2023-03-24T17:45:41.119Z,11.70
2023-03-24T17:48:07.639Z,11.80
2023-03-24T17:50:34.216Z,11.80
2023-03-24T17:53:01.010Z,11.70
2023-03-24T17:55:27.482Z,11.70
2023-03-24T17:57:53.944Z,11.70
2023-03-24T18:00:20.621Z,11.60
2023-03-24T18:02:47.214Z,11.60
2023-03-24T18:05:13.783Z,11.60
2023-03-24T18:07:40.332Z,11.50
2023-03-24T18:10:08.046Z,11.50
2023-03-24T18:12:35.513Z,11.50
2023-03-24T18:15:02.103Z,11.40
2023-03-24T18:17:29.247Z,11.40
2023-03-24T18:19:56.395Z,11.40
2023-03-24T18:22:23.392Z,11.30
2023-03-24T18:24:50.156Z,11.20
2023-03-24T18:27:16.637Z,11.20
2023-03-24T18:29:43.094Z,11.20
2023-03-24T18:32:09.812Z,11.10
2023-03-24T18:34:38.699Z,11.00
2023-03-24T18:37:05.192Z,11.00
2023-03-24T18:39:31.652Z,10.90
2023-03-24T18:41:58.170Z,10.90
2023-03-24T18:44:24.694Z,10.90
2023-03-24T18:46:51.448Z,10.80
2023-03-24T18:49:17.930Z,10.80
2023-03-24T18:51:46.055Z,10.80
2023-03-24T18:54:12.889Z,10.80
2023-03-24T18:56:39.461Z,10.90
2023-03-24T18:59:06.885Z,11.00
2023-03-24T19:01:35.749Z,11.00
2023-03-24T19:04:02.342Z,11.10
2023-03-24T19:06:31.559Z,11.10
2023-03-24T19:08:58.965Z,11.00
2023-03-24T19:11:26.158Z,11.00
2023-03-24T19:13:55.006Z,11.00
2023-03-24T19:16:21.595Z,11.00
2023-03-24T19:18:48.272Z,11.00
2023-03-24T19:21:14.945Z,11.00
2023-03-24T19:23:41.494Z,11.00
2023-03-24T19:26:07.965Z,10.90
2023-03-24T19:28:36.254Z,10.90
2023-03-24T19:31:08.749Z,10.90
2023-03-24T19:33:36.658Z,10.90
2023-03-24T19:36:03.829Z,10.90
2023-03-24T19:38:30.432Z,10.90
2023-03-24T19:40:57.145Z,10.80
2023-03-24T19:43:23.983Z,10.80
2023-03-24T19:45:51.136Z,10.80
2023-03-24T19:48:17.973Z,10.80
2023-03-24T19:50:45.093Z,10.80
2023-03-24T19:53:11.866Z,10.70
2023-03-24T19:55:38.480Z,10.70
2023-03-24T19:58:05.096Z,10.70
2023-03-24T20:00:31.891Z,10.70
2023-03-24T20:02:58.464Z,10.70
2023-03-24T20:05:25.035Z,10.70
2023-03-24T20:07:55.217Z,10.60
2023-03-24T20:10:22.006Z,10.50
2023-03-24T20:12:48.479Z,10.50
2023-03-24T20:15:15.413Z,10.50
2023-03-24T20:17:42.477Z,10.50
2023-03-24T20:20:11.038Z,10.40
2023-03-24T20:22:42.014Z,10.50
2023-03-24T20:25:09.850Z,10.40
2023-03-24T20:27:36.588Z,10.40
2023-03-24T20:30:04.266Z,10.50
2023-03-24T20:32:31.277Z,10.50
2023-03-24T20:34:58.020Z,10.60
2023-03-24T20:37:25.501Z,10.50
2023-03-24T20:39:52.093Z,10.60
2023-03-24T20:42:23.225Z,10.60
2023-03-24T20:44:50.297Z,10.60
2023-03-24T20:47:16.754Z,10.60
2023-03-24T20:49:43.216Z,10.60
2023-03-24T20:52:09.732Z,10.60
2023-03-24T20:54:36.317Z,10.60
2023-03-24T20:57:03.303Z,10.60
2023-03-24T20:59:29.835Z,10.60
2023-03-24T21:01:58.245Z,10.60
2023-03-24T21:04:24.746Z,10.60
2023-03-24T21:06:51.249Z,10.60
2023-03-24T21:09:17.705Z,10.60
2023-03-24T21:11:44.200Z,10.50
2023-03-24T21:14:10.957Z,10.30
2023-03-24T21:16:37.890Z,10.10
2023-03-24T21:19:04.691Z,10.00
2023-03-24T21:21:32.865Z,10.00
2023-03-24T21:24:00.368Z,9.90
2023-03-24T21:26:27.336Z,9.90
2023-03-24T21:28:54.012Z,9.80
2023-03-24T21:31:22.221Z,9.90
2023-03-24T21:33:49.113Z,9.80
2023-03-24T21:36:15.920Z,9.80
2023-03-24T21:38:42.805Z,9.80
2023-03-24T21:41:09.594Z,9.80
2023-03-24T21:43:36.495Z,9.80
2023-03-24T21:46:03.860Z,9.80
2023-03-24T21:48:32.624Z,9.80
2023-03-24T21:51:00.201Z,9.80
2023-03-24T21:53:26.690Z,9.80
2023-03-24T21:55:56.702Z,9.70
2023-03-24T21:58:23.208Z,9.80
2023-03-24T22:00:49.889Z,9.80
2023-03-24T22:03:17.039Z,9.80
2023-03-24T22:05:44.216Z,9.80
2023-03-24T22:08:12.022Z,9.80
2023-03-24T22:10:42.492Z,9.80
2023-03-24T22:13:10.293Z,9.80
2023-03-24T22:15:37.676Z,9.80
2023-03-24T22:18:04.290Z,9.80
2023-03-24T22:20:31.875Z,9.90
2023-03-24T22:22:59.909Z,9.80
2023-03-24T22:25:26.450Z,9.90
2023-03-24T22:27:55.890Z,9.90
2023-03-24T22:30:23.021Z,9.90
2023-03-24T22:32:49.570Z,9.90
2023-03-24T22:35:16.458Z,9.90
2023-03-24T22:37:42.945Z,9.90
2023-03-24T22:40:09.548Z,9.90
2023-03-24T22:42:36.022Z,9.90
2023-03-24T22:45:02.520Z,9.90
2023-03-24T22:47:29.133Z,9.90
2023-03-24T22:49:55.697Z,9.90
2023-03-24T22:52:22.275Z,9.90
2023-03-24T22:54:48.734Z,9.90
2023-03-24T22:57:17.446Z,9.90
2023-03-24T22:59:44.154Z,9.90
2023-03-24T23:02:10.722Z,9.90
2023-03-24T23:04:39.533Z,9.90
2023-03-24T23:07:07.386Z,9.90
2023-03-24T23:09:34.021Z,9.90
2023-03-24T23:12:00.510Z,9.90
2023-03-24T23:14:27.604Z,9.90
2023-03-24T23:16:56.123Z,9.90
2023-03-24T23:19:23.168Z,9.90
2023-03-24T23:21:49.708Z,9.90
2023-03-24T23:24:16.878Z,9.90
2023-03-24T23:26:43.539Z,9.90
2023-03-24T23:29:10.133Z,9.90
2023-03-24T23:31:36.894Z,9.90
2023-03-24T23:34:07.321Z,9.90
2023-03-24T23:36:34.103Z,9.90
2023-03-24T23:39:00.617Z,9.90
2023-03-24T23:41:27.161Z,9.90
2023-03-24T23:43:54.209Z,9.90
2023-03-24T23:46:20.794Z,9.90
2023-03-24T23:48:47.387Z,9.90
2023-03-24T23:51:13.925Z,9.90
2023-03-24T23:53:40.425Z,9.90
2023-03-24T23:56:07.783Z,9.90
2023-03-24T23:58:38.714Z,9.80
